createdAt,value
2019-03-05T00:04:20.638Z,4.43
2019-03-05T00:09:22.620Z,4.00
2019-03-05T00:14:24.175Z,4.43
2019-03-05T00:19:25.773Z,3.30
2019-03-05T00:24:58.954Z,3.60
2019-03-05T00:30:48.528Z,4.00
2019-03-05T00:36:17.434Z,3.80
2019-03-05T00:41:56.000Z,3.50
2019-03-05T00:47:27.554Z,3.57
2019-03-05T00:53:11.090Z,3.07
2019-03-05T00:58:23.259Z,2.77
2019-03-05T01:03:59.958Z,2.70
2019-03-05T01:09:03.345Z,2.40
2019-03-05T01:14:04.874Z,2.50
2019-03-05T01:19:06.915Z,1.93
2019-03-05T01:24:08.454Z,1.80
2019-03-05T01:29:10.061Z,1.17
2019-03-05T01:34:12.080Z,1.97
2019-03-05T01:39:13.962Z,2.13
2019-03-05T01:44:15.618Z,1.90
2019-03-05T01:49:17.267Z,2.40
2019-03-05T01:54:18.797Z,2.10
2019-03-05T01:59:20.429Z,2.10
2019-03-05T02:04:22.379Z,2.10
2019-03-05T02:09:23.916Z,2.27
2019-03-05T02:14:25.951Z,2.67
2019-03-05T02:19:56.352Z,2.70
2019-03-05T02:25:41.212Z,2.53
2019-03-05T02:31:04.050Z,2.33
2019-03-05T02:36:14.448Z,2.43
2019-03-05T02:42:02.892Z,3.40
2019-03-05T02:47:35.564Z,3.37
2019-03-05T02:53:18.118Z,3.17
2019-03-05T02:58:18.628Z,3.17
2019-03-05T03:03:20.205Z,3.40
2019-03-05T03:08:21.822Z,4.00
2019-03-05T03:13:23.446Z,3.17
2019-03-05T03:18:25.009Z,3.80
2019-03-05T03:23:27.056Z,3.57
2019-03-05T03:28:28.706Z,3.40
2019-03-05T03:33:30.540Z,2.93
2019-03-05T03:38:32.085Z,2.83
2019-03-05T03:43:33.650Z,3.53
2019-03-05T03:48:35.181Z,2.90
2019-03-05T03:53:36.757Z,3.80
2019-03-05T03:58:38.706Z,3.93
2019-03-05T04:03:40.238Z,4.40
2019-03-05T04:08:41.774Z,5.10
2019-03-05T04:13:43.378Z,4.80
2019-03-05T04:18:44.986Z,6.03
2019-03-05T04:23:46.873Z,4.97
2019-03-05T04:28:48.839Z,4.60
2019-03-05T04:33:50.878Z,5.17
2019-03-05T04:38:52.482Z,6.50
2019-03-05T04:43:54.052Z,6.57
2019-03-05T04:48:56.020Z,6.57
2019-03-05T04:53:57.606Z,5.70
2019-03-05T04:58:59.184Z,7.07
2019-03-05T05:04:00.726Z,5.40
2019-03-05T05:09:03.514Z,5.60
2019-03-05T05:14:05.096Z,5.27
2019-03-05T05:19:06.684Z,4.70
2019-03-05T05:24:08.239Z,4.07
2019-03-05T05:29:09.842Z,4.60
2019-03-05T05:34:11.384Z,4.53
2019-03-05T05:39:52.538Z,5.60
2019-03-05T05:44:54.453Z,6.70
2019-03-05T05:49:56.459Z,7.40
2019-03-05T05:54:58.015Z,6.70
2019-03-05T05:59:59.601Z,6.57
2019-03-05T06:05:01.555Z,4.97
2019-03-05T06:10:03.646Z,4.70
2019-03-05T06:15:06.087Z,3.80
2019-03-05T06:20:08.881Z,3.30
2019-03-05T06:25:10.819Z,3.30
2019-03-05T06:30:13.045Z,3.00
2019-03-05T06:35:14.639Z,3.40
2019-03-05T06:40:16.288Z,2.67
2019-03-05T06:45:19.981Z,3.00
2019-03-05T06:50:21.595Z,3.40
2019-03-05T06:55:23.264Z,3.90
2019-03-05T07:00:25.188Z,4.50
2019-03-05T07:06:03.949Z,4.20
2019-03-05T07:11:14.366Z,3.77
2019-03-05T07:16:26.943Z,4.70
2019-03-05T07:22:03.845Z,5.57
2019-03-05T07:27:06.282Z,5.60
2019-03-05T07:32:07.889Z,6.23
2019-03-05T07:37:09.909Z,6.70
2019-03-05T07:42:11.505Z,6.40
2019-03-05T07:47:13.119Z,7.10
2019-03-05T07:52:14.701Z,6.80
2019-03-05T07:57:16.420Z,6.23
2019-03-05T08:02:18.019Z,6.53
2019-03-05T08:07:19.695Z,5.53
2019-03-05T08:12:53.776Z,5.07
2019-03-05T08:17:55.406Z,5.17
2019-03-05T08:22:57.020Z,4.67
2019-03-05T08:27:58.648Z,4.33
2019-03-05T08:33:00.175Z,4.27
2019-03-05T08:38:01.700Z,3.60
2019-03-05T08:43:03.406Z,4.00
2019-03-05T08:48:04.941Z,3.70
2019-03-05T08:53:06.547Z,3.63
2019-03-05T08:58:08.418Z,3.33
2019-03-05T09:03:09.985Z,3.40
2019-03-05T09:08:11.562Z,3.60
2019-03-05T09:13:13.077Z,4.40
2019-03-05T09:18:14.892Z,4.40
2019-03-05T09:23:16.458Z,3.60
2019-03-05T09:28:18.146Z,3.93
2019-03-05T09:33:21.542Z,3.60
2019-03-05T09:38:23.422Z,3.37
2019-03-05T09:43:24.996Z,3.70
2019-03-05T09:48:26.654Z,4.00
2019-03-05T09:53:28.278Z,3.70
2019-03-05T09:58:29.880Z,3.20
2019-03-05T10:03:31.926Z,3.80
2019-03-05T10:08:33.551Z,2.90
2019-03-05T10:13:35.601Z,3.20
2019-03-05T10:18:39.305Z,2.63
2019-03-05T10:23:40.680Z,3.13
2019-03-05T10:28:42.350Z,3.37
2019-03-05T10:33:44.046Z,2.77
2019-03-05T10:38:56.636Z,2.70
2019-03-05T10:43:49.182Z,3.27
2019-03-05T10:48:50.798Z,2.97
2019-03-05T10:53:52.856Z,3.43
2019-03-05T10:58:54.522Z,3.17
2019-03-05T11:03:56.123Z,3.00
2019-03-05T11:08:57.680Z,3.00
2019-03-05T11:13:59.278Z,3.10
2019-03-05T11:19:01.364Z,3.10
2019-03-05T11:24:03.402Z,2.90
2019-03-05T11:29:05.059Z,3.70
2019-03-05T11:34:06.982Z,2.70
2019-03-05T11:39:08.597Z,3.00
2019-03-05T11:44:10.244Z,2.87
2019-03-05T11:49:11.904Z,3.00
2019-03-05T11:54:13.603Z,2.30
2019-03-05T11:59:15.557Z,2.60
2019-03-05T12:04:17.236Z,2.73
2019-03-05T12:09:19.342Z,2.53
2019-03-05T12:14:20.931Z,2.50
2019-03-05T12:19:22.745Z,2.60
2019-03-05T12:24:25.634Z,2.40
2019-03-05T12:29:27.398Z,2.20
2019-03-05T12:34:28.991Z,2.40
2019-03-05T12:39:30.701Z,2.83
2019-03-05T12:44:32.467Z,2.53
2019-03-05T12:49:33.997Z,2.17
2019-03-05T12:54:35.595Z,2.40
2019-03-05T12:59:37.240Z,2.43
2019-03-05T13:04:38.813Z,2.17
2019-03-05T13:09:41.483Z,1.93
2019-03-05T13:14:43.873Z,1.97
2019-03-05T13:19:47.998Z,1.63
2019-03-05T13:24:50.255Z,2.23
2019-03-05T13:29:52.683Z,2.50
2019-03-05T13:34:54.219Z,2.07
2019-03-05T13:39:58.217Z,2.43
2019-03-05T13:44:59.664Z,2.10
2019-03-05T13:50:53.011Z,2.47
2019-03-05T13:56:21.779Z,1.90
2019-03-05T14:01:23.344Z,2.17
2019-03-05T14:07:11.782Z,1.83
2019-03-05T14:12:13.661Z,2.27
2019-03-05T14:17:15.391Z,2.20
2019-03-05T14:22:16.955Z,2.00
2019-03-05T14:27:18.495Z,1.97
2019-03-05T14:32:20.450Z,1.57
2019-03-05T14:37:22.162Z,1.67
2019-03-05T14:42:24.023Z,2.00
2019-03-05T14:47:25.601Z,1.60
2019-03-05T14:52:27.254Z,1.70
2019-03-05T14:57:28.801Z,1.77
2019-03-05T15:02:30.527Z,2.07
2019-03-05T15:07:32.464Z,2.37
2019-03-05T15:12:34.757Z,1.60
2019-03-05T15:17:36.339Z,2.13
2019-03-05T15:22:37.956Z,2.23
2019-03-05T15:27:39.564Z,1.70
2019-03-05T15:32:42.791Z,1.80
2019-03-05T15:37:44.767Z,2.00
2019-03-05T15:42:46.334Z,1.50
2019-03-05T15:47:47.954Z,1.60
2019-03-05T15:52:49.681Z,1.73
2019-03-05T15:57:51.269Z,2.03
2019-03-05T16:02:52.844Z,2.10
2019-03-05T16:07:56.526Z,2.13
2019-03-05T16:12:58.179Z,2.40
2019-03-05T16:18:01.381Z,2.50
2019-03-05T16:23:04.252Z,2.13
2019-03-05T16:28:07.389Z,2.33
2019-03-05T16:33:09.267Z,2.60
2019-03-05T16:38:10.875Z,2.53
2019-03-05T16:43:12.432Z,2.60
2019-03-05T16:48:14.055Z,2.80
2019-03-05T16:53:15.620Z,2.43
2019-03-05T16:58:17.202Z,2.43
2019-03-05T17:03:18.733Z,2.20
2019-03-05T17:08:20.341Z,2.20
2019-03-05T17:13:22.138Z,2.37
2019-03-05T17:18:24.639Z,2.53
2019-03-05T17:23:27.125Z,2.03
2019-03-05T17:28:28.666Z,2.43
2019-03-05T17:33:30.704Z,2.20
2019-03-05T17:38:32.246Z,2.23
2019-03-05T17:43:33.949Z,3.15
2019-03-05T17:48:35.625Z,2.63
2019-03-05T17:53:37.267Z,2.37
2019-03-05T17:58:39.627Z,2.87
2019-03-05T18:03:42.283Z,2.73
2019-03-05T18:08:44.226Z,3.37
2019-03-05T18:13:45.837Z,3.10
2019-03-05T18:18:47.418Z,2.97
2019-03-05T18:23:49.017Z,4.37
2019-03-05T18:28:50.557Z,2.80
2019-03-05T18:33:52.124Z,2.50
2019-03-05T18:38:54.157Z,2.83
2019-03-05T18:43:56.083Z,2.80
2019-03-05T18:48:57.742Z,6.70
2019-03-05T18:53:59.406Z,4.93
2019-03-05T18:59:01.036Z,3.80
2019-03-05T19:04:02.711Z,4.00
2019-03-05T19:09:04.870Z,4.00
2019-03-05T19:14:06.492Z,6.07
2019-03-05T19:19:08.116Z,3.90
2019-03-05T19:24:09.698Z,4.63
2019-03-05T19:29:12.068Z,4.47
2019-03-05T19:34:13.709Z,4.30
2019-03-05T19:39:15.791Z,4.67
2019-03-05T19:44:17.569Z,3.90
2019-03-05T19:49:19.323Z,4.20
2019-03-05T19:54:21.039Z,4.20
2019-03-05T19:59:22.605Z,4.53
2019-03-05T20:04:24.296Z,7.60
2019-03-05T20:09:25.907Z,5.03
2019-03-05T20:14:27.778Z,4.20
2019-03-05T20:19:29.617Z,4.10
2019-03-05T20:24:31.575Z,4.13
2019-03-05T20:29:33.550Z,4.87
2019-03-05T20:34:35.596Z,4.03
2019-03-05T20:39:37.503Z,4.63
2019-03-05T20:44:40.114Z,4.40
2019-03-05T20:49:42.226Z,4.60
2019-03-05T20:54:43.869Z,5.00
2019-03-05T20:59:45.769Z,5.40
2019-03-05T21:04:47.429Z,4.70
2019-03-05T21:09:49.228Z,5.77
2019-03-05T21:14:50.926Z,4.80
2019-03-05T21:19:52.533Z,4.80
2019-03-05T21:24:54.176Z,4.97
2019-03-05T21:29:55.824Z,5.57
2019-03-05T21:34:57.492Z,5.10
2019-03-05T21:39:59.566Z,5.50
2019-03-05T21:45:03.976Z,5.37
2019-03-05T21:50:07.036Z,5.37
2019-03-05T21:55:08.954Z,5.63
2019-03-05T22:00:19.248Z,4.90
2019-03-05T22:05:20.798Z,6.07
2019-03-05T22:10:22.522Z,6.40
2019-03-05T22:15:24.604Z,5.67
2019-03-05T22:20:26.193Z,5.27
2019-03-05T22:25:29.017Z,4.70
2019-03-05T22:30:31.367Z,5.40
2019-03-05T22:35:32.950Z,5.37
2019-03-05T22:40:34.530Z,5.23
2019-03-05T22:45:36.797Z,5.07
2019-03-05T22:50:38.364Z,5.53
2019-03-05T22:55:40.342Z,5.40
2019-03-05T23:01:05.700Z,5.40
2019-03-05T23:06:07.992Z,4.63
2019-03-05T23:11:09.513Z,5.60
2019-03-05T23:16:11.102Z,5.10
2019-03-05T23:21:12.629Z,5.30
2019-03-05T23:26:14.243Z,4.77
2019-03-05T23:31:15.800Z,5.90
2019-03-05T23:36:17.315Z,6.13
2019-03-05T23:41:18.861Z,5.23
2019-03-05T23:46:20.524Z,5.73
2019-03-05T23:51:22.574Z,5.57
2019-03-05T23:56:24.184Z,6.67
